Time;durP1;ratioP1;P1;durP2;ratioP2;P2;SDS_P1;SDS_P2;PMS_P1;PMS_P2;Temp;Humidity;BMP_temperature;BMP_pressure;BME280_temperature;BME280_humidity;BME280_pressure;Samples;Min_cycle;Max_cycle;Signal;HPM_P1;HPM_P2
2022/11/25 00:00:50;;;;;;;3.63;1.70;;;5.10;99.90;;;;;;5063283;28;20423;-70
2022/11/25 00:03:15;;;;;;;2.30;1.70;;;5.10;99.90;;;;;;5060888;28;20407;-71
2022/11/25 00:05:41;;;;;;;3.97;1.70;;;5.20;99.90;;;;;;5048248;28;20411;-70
2022/11/25 00:08:06;;;;;;;2.23;1.50;;;5.30;99.90;;;;;;5063592;28;20461;-70
2022/11/25 00:10:32;;;;;;;2.00;1.40;;;5.20;99.90;;;;;;5062430;28;20912;-70
2022/11/25 00:12:57;;;;;;;2.50;1.30;;;5.20;99.90;;;;;;5048268;28;20926;-70
2022/11/25 00:15:23;;;;;;;2.03;1.30;;;5.30;99.90;;;;;;5060257;28;20418;-70
2022/11/25 00:17:48;;;;;;;3.47;1.70;;;5.30;99.90;;;;;;5059000;28;20408;-71
2022/11/25 00:20:14;;;;;;;2.72;1.20;;;5.30;99.90;;;;;;5046137;28;20403;-71
2022/11/25 00:22:40;;;;;;;2.00;1.50;;;5.40;99.90;;;;;;5058522;28;20409;-71
2022/11/25 00:25:05;;;;;;;1.90;1.70;;;5.40;99.90;;;;;;5058935;28;20401;-70
2022/11/25 00:27:31;;;;;;;2.00;1.45;;;5.50;99.90;;;;;;5067375;28;20405;-69
2022/11/25 00:29:57;;;;;;;2.93;1.70;;;5.60;99.90;;;;;;5061993;28;20410;-71
2022/11/25 00:32:22;;;;;;;2.10;1.80;;;5.40;99.90;;;;;;5050838;28;20482;-69
2022/11/25 00:34:48;;;;;;;2.10;1.67;;;5.30;99.90;;;;;;5064107;28;20408;-70
2022/11/25 00:37:13;;;;;;;3.00;1.47;;;5.30;99.90;;;;;;5062050;28;20735;-70
2022/11/25 00:39:39;;;;;;;2.50;1.70;;;5.10;99.90;;;;;;5059963;28;20627;-70
2022/11/25 00:44:48;;;;;;;4.43;2.30;;;5.40;99.90;;;;;;5061506;28;20453;-71
2022/11/25 00:47:19;;;;;;;3.80;2.30;;;5.30;99.90;;;;;;5063633;28;20490;-71
2022/11/25 00:49:47;;;;;;;3.00;1.70;;;5.40;99.90;;;;;;5062589;28;20881;-71
2022/11/25 00:52:14;;;;;;;2.30;1.70;;;5.40;99.90;;;;;;5061330;28;20911;-70
2022/11/25 00:54:40;;;;;;;2.53;1.90;;;5.40;99.90;;;;;;5058096;28;20409;-70
2022/11/25 00:57:06;;;;;;;3.60;1.80;;;5.40;99.90;;;;;;5062687;28;20422;-69
2022/11/25 00:59:32;;;;;;;3.13;1.60;;;5.50;99.90;;;;;;5058604;28;20449;-69
2022/11/25 01:01:57;;;;;;;2.20;1.30;;;5.40;99.90;;;;;;5061691;28;20403;-70
2022/11/25 01:04:23;;;;;;;3.13;1.60;;;5.40;99.90;;;;;;5054732;28;20412;-70
2022/11/25 01:06:49;;;;;;;3.30;1.48;;;5.30;99.90;;;;;;5062767;28;20390;-70
2022/11/25 01:09:14;;;;;;;1.60;1.13;;;5.40;99.90;;;;;;5054937;28;20490;-70
2022/11/25 01:11:40;;;;;;;1.17;0.87;;;5.50;99.90;;;;;;5064688;28;20735;-70
2022/11/25 01:14:06;;;;;;;2.50;1.10;;;5.50;99.90;;;;;;5045641;28;20841;-70
2022/11/25 01:16:32;;;;;;;3.47;1.38;;;5.50;99.90;;;;;;5058415;28;20397;-70
2022/11/25 01:18:59;;;;;;;1.90;1.00;;;5.60;99.90;;;;;;5057176;28;20763;-70
2022/11/25 01:21:27;;;;;;;2.77;1.30;;;5.50;99.90;;;;;;5059389;28;20480;-70
2022/11/25 01:23:53;;;;;;;3.03;1.30;;;5.50;99.90;;;;;;5043918;28;20833;-70
2022/11/25 01:26:22;;;;;;;1.10;1.00;;;5.50;99.90;;;;;;5060746;28;20441;-70
2022/11/25 01:28:51;;;;;;;4.75;1.30;;;5.50;99.90;;;;;;5065165;28;20403;-69
2022/11/25 01:31:19;;;;;;;2.78;1.20;;;5.70;99.90;;;;;;5061524;28;20399;-70
2022/11/25 01:33:46;;;;;;;2.95;1.00;;;5.80;99.90;;;;;;5061430;28;20415;-70
2022/11/25 01:36:15;;;;;;;3.50;1.20;;;5.70;99.90;;;;;;5060871;28;20492;-70
2022/11/25 01:38:41;;;;;;;2.30;1.23;;;5.70;99.90;;;;;;5039914;28;20872;-70
2022/11/25 01:41:09;;;;;;;1.90;1.15;;;5.70;99.90;;;;;;5061263;28;20406;-70
2022/11/25 01:43:35;;;;;;;3.90;1.40;;;5.70;99.90;;;;;;5061873;28;20419;-70
2022/11/25 01:46:19;;;;;;;1.30;1.10;;;5.70;99.90;;;;;;5066559;28;21074;-70
2022/11/25 01:48:58;;;;;;;1.75;1.05;;;5.70;99.90;;;;;;5062347;28;20377;-70
2022/11/25 01:51:42;;;;;;;1.38;1.00;;;5.70;99.90;;;;;;5062888;28;20407;-69
2022/11/25 01:54:11;;;;;;;3.10;1.30;;;5.70;99.90;;;;;;5056675;28;20408;-70
2022/11/25 01:56:41;;;;;;;0.82;0.80;;;5.80;99.90;;;;;;5060914;28;20400;-70
2022/11/25 01:59:07;;;;;;;2.42;1.10;;;5.80;99.90;;;;;;5058870;28;20401;-70
2022/11/25 02:01:33;;;;;;;2.08;0.90;;;5.80;99.90;;;;;;5043159;28;20403;-70
2022/11/25 02:03:59;;;;;;;1.20;1.00;;;5.70;99.90;;;;;;5054196;28;20468;-71
2022/11/25 02:06:37;;;;;;;1.25;0.65;;;5.60;99.90;;;;;;5061510;28;20418;-70
2022/11/25 02:09:06;;;;;;;1.52;0.90;;;5.60;99.90;;;;;;5058488;28;20871;-70
2022/11/25 02:11:35;;;;;;;1.20;0.93;;;5.50;99.90;;;;;;5060110;28;20446;-71
2022/11/25 02:14:02;;;;;;;1.50;1.00;;;5.50;99.90;;;;;;5047912;28;20410;-70
2022/11/25 02:16:28;;;;;;;2.60;1.23;;;5.40;99.90;;;;;;5064394;28;20444;-71
2022/11/25 02:18:53;;;;;;;1.23;1.10;;;5.50;99.90;;;;;;5058184;28;20416;-71
2022/11/25 02:21:39;;;;;;;1.30;0.97;;;5.50;99.90;;;;;;5058276;28;20406;-72
2022/11/25 02:24:28;;;;;;;2.50;1.40;;;5.50;99.90;;;;;;5061833;28;20445;-71
2022/11/25 02:26:53;;;;;;;2.40;1.00;;;5.70;99.90;;;;;;5057167;28;20451;-71
2022/11/25 02:29:19;;;;;;;2.10;0.80;;;5.60;99.90;;;;;;5058053;28;20384;-70
2022/11/25 02:31:49;;;;;;;1.10;0.60;;;5.60;99.90;;;;;;5055728;28;20916;-70
2022/11/25 02:34:14;;;;;;;1.60;0.80;;;5.60;99.90;;;;;;5059870;28;20403;-70
2022/11/25 02:36:40;;;;;;;3.53;0.80;;;5.80;99.90;;;;;;5043332;28;20520;-70
2022/11/25 02:39:06;;;;;;;2.70;0.90;;;5.80;99.90;;;;;;5052849;28;20389;-70
2022/11/25 02:41:49;;;;;;;1.98;0.70;;;5.70;99.90;;;;;;5054013;28;20411;-71
2022/11/25 02:44:15;;;;;;;2.00;1.00;;;5.70;99.90;;;;;;5059593;28;20423;-71
2022/11/25 02:46:41;;;;;;;2.50;0.80;;;5.80;99.90;;;;;;5053645;28;20828;-71
2022/11/25 02:49:06;;;;;;;2.60;1.20;;;5.70;99.90;;;;;;5065000;28;20819;-71
2022/11/25 02:51:33;;;;;;;0.90;0.80;;;5.70;99.90;;;;;;5046890;28;20409;-71
2022/11/25 02:54:00;;;;;;;1.83;0.70;;;5.80;99.90;;;;;;5056848;28;20412;-71
2022/11/25 02:56:32;;;;;;;2.97;0.80;;;5.70;99.90;;;;;;5058369;28;20393;-71
2022/11/25 02:58:57;;;;;;;2.80;0.82;;;5.70;99.90;;;;;;5056998;28;20408;-70
2022/11/25 03:01:23;;;;;;;0.60;0.60;;;5.70;99.90;;;;;;5062312;28;20774;-71
2022/11/25 03:03:48;;;;;;;1.53;0.90;;;5.80;99.90;;;;;;5062420;28;20399;-71
2022/11/25 03:06:14;;;;;;;1.50;0.70;;;5.90;99.90;;;;;;5059029;28;20407;-71
2022/11/25 03:08:40;;;;;;;1.80;0.80;;;5.90;99.90;;;;;;5057800;28;20389;-71
2022/11/25 03:11:06;;;;;;;1.57;0.77;;;5.90;99.90;;;;;;5056800;28;20435;-70
2022/11/25 03:13:31;;;;;;;2.17;0.70;;;6.00;99.90;;;;;;5053966;28;20421;-71
2022/11/25 03:15:57;;;;;;;2.10;0.80;;;6.10;99.90;;;;;;5056889;28;20397;-71
2022/11/25 03:18:22;;;;;;;1.10;0.70;;;6.10;99.90;;;;;;5058262;28;20405;-70
2022/11/25 03:20:52;;;;;;;1.40;0.70;;;6.20;99.90;;;;;;5060152;28;20406;-71
2022/11/25 03:23:18;;;;;;;1.80;0.70;;;6.20;99.90;;;;;;5063632;28;20398;-71
2022/11/25 03:25:43;;;;;;;2.20;0.90;;;6.20;99.90;;;;;;5056058;28;20877;-71
2022/11/25 03:28:09;;;;;;;2.60;1.17;;;6.20;99.90;;;;;;5059866;28;20397;-71
2022/11/25 03:30:34;;;;;;;3.43;0.80;;;6.10;99.90;;;;;;5061013;28;20767;-71
2022/11/25 03:33:00;;;;;;;2.20;0.80;;;6.10;99.90;;;;;;5063705;28;20413;-72
2022/11/25 03:35:25;;;;;;;1.88;0.77;;;6.20;99.90;;;;;;5060622;28;20498;-71
2022/11/25 03:37:51;;;;;;;1.70;0.60;;;6.20;99.90;;;;;;5060857;28;20880;-71
2022/11/25 03:40:16;;;;;;;3.20;0.90;;;6.20;99.90;;;;;;5059380;28;20411;-71
2022/11/25 03:42:44;;;;;;;1.30;0.70;;;6.20;99.90;;;;;;5059640;28;20408;-71
2022/11/25 03:45:14;;;;;;;1.90;0.90;;;6.20;99.90;;;;;;5067870;28;20457;-71
2022/11/25 03:47:41;;;;;;;1.95;0.80;;;6.20;99.90;;;;;;5057204;28;20445;-70
2022/11/25 03:50:09;;;;;;;1.88;1.00;;;6.20;99.90;;;;;;5046925;28;20413;-71
2022/11/25 03:52:35;;;;;;;1.43;0.87;;;6.10;99.90;;;;;;5066385;28;20656;-71
2022/11/25 03:55:00;;;;;;;1.30;0.60;;;6.20;99.90;;;;;;5069597;28;20505;-71
2022/11/25 03:57:26;;;;;;;1.70;0.70;;;6.20;99.90;;;;;;5065652;28;20402;-71
2022/11/25 03:59:51;;;;;;;2.83;0.90;;;6.10;99.90;;;;;;5069178;28;20470;-71
2022/11/25 04:02:17;;;;;;;2.03;0.80;;;6.10;99.90;;;;;;5070095;28;20470;-71
2022/11/25 04:04:42;;;;;;;1.80;1.00;;;6.20;99.90;;;;;;5063748;28;20482;-71
2022/11/25 04:07:08;;;;;;;2.00;0.97;;;6.10;99.90;;;;;;5062786;28;20456;-71
2022/11/25 04:09:34;;;;;;;1.90;0.70;;;6.30;99.90;;;;;;5056209;28;20494;-71
2022/11/25 04:14:43;;;;;;;2.15;0.70;;;6.20;99.90;;;;;;5059460;28;21013;-70
2022/11/25 04:17:08;;;;;;;1.70;0.80;;;6.20;99.90;;;;;;5063200;28;20375;-69
2022/11/25 04:19:34;;;;;;;1.20;0.80;;;6.10;99.90;;;;;;5056137;28;20403;-69
2022/11/25 04:22:01;;;;;;;3.40;1.05;;;6.20;99.90;;;;;;5069091;28;20407;-69
2022/11/25 04:24:27;;;;;;;2.67;1.10;;;6.20;99.90;;;;;;5057060;28;20482;-70
2022/11/25 04:26:52;;;;;;;2.35;1.50;;;6.20;99.90;;;;;;5060266;28;20382;-69
2022/11/25 04:29:18;;;;;;;2.33;1.20;;;6.20;99.90;;;;;;5043587;28;20963;-69
2022/11/25 04:31:44;;;;;;;2.30;1.10;;;6.20;99.90;;;;;;5060248;28;20406;-69
2022/11/25 04:34:09;;;;;;;4.80;1.30;;;6.10;99.90;;;;;;5061329;28;20469;-69
2022/11/25 04:36:35;;;;;;;1.93;1.20;;;6.10;99.90;;;;;;5061792;28;20407;-70
2022/11/25 04:39:00;;;;;;;2.20;1.23;;;6.00;99.90;;;;;;5060121;28;20484;-69
2022/11/25 04:41:26;;;;;;;3.40;1.10;;;6.00;99.90;;;;;;5067901;28;20397;-69
2022/11/25 04:43:52;;;;;;;3.00;1.20;;;6.00;99.90;;;;;;5059344;28;20381;-69
2022/11/25 04:46:21;;;;;;;2.50;1.17;;;5.90;99.90;;;;;;5056040;28;20430;-70
2022/11/25 04:48:46;;;;;;;0.97;0.90;;;6.00;99.90;;;;;;5052414;28;20815;-69
2022/11/25 04:51:12;;;;;;;2.10;1.10;;;6.10;99.90;;;;;;5048541;28;20429;-69
2022/11/25 04:53:37;;;;;;;1.90;0.80;;;6.20;99.90;;;;;;5062996;28;20418;-69
2022/11/25 04:56:03;;;;;;;2.77;1.20;;;6.10;99.90;;;;;;5063535;28;20403;-71
2022/11/25 05:01:13;;;;;;;1.77;0.82;;;6.30;99.90;;;;;;5057150;28;20433;-71
2022/11/25 05:03:38;;;;;;;1.20;1.02;;;6.30;99.90;;;;;;5061691;28;20823;-70
2022/11/25 05:06:08;;;;;;;1.77;1.00;;;6.30;99.90;;;;;;5060882;28;20434;-70
2022/11/25 05:08:34;;;;;;;2.67;1.07;;;6.30;99.90;;;;;;5058698;28;20714;-70
2022/11/25 05:10:59;;;;;;;2.00;1.00;;;6.40;99.90;;;;;;5048271;28;20437;-70
2022/11/25 05:13:25;;;;;;;2.20;1.10;;;6.50;99.90;;;;;;5058713;28;20436;-70
2022/11/25 05:15:50;;;;;;;1.92;0.90;;;6.40;99.90;;;;;;5056595;28;20897;-71
2022/11/25 05:18:16;;;;;;;2.40;1.00;;;6.40;99.90;;;;;;5062246;28;20927;-70
2022/11/25 05:20:42;;;;;;;2.40;0.87;;;6.40;99.90;;;;;;5057098;28;20393;-70
2022/11/25 05:23:07;;;;;;;1.10;0.70;;;6.50;99.90;;;;;;5057374;28;20407;-70
2022/11/25 05:25:33;;;;;;;2.35;0.90;;;6.40;99.90;;;;;;5065575;28;20775;-69
2022/11/25 05:27:59;;;;;;;2.40;0.90;;;6.40;99.90;;;;;;5059355;28;20404;-70
2022/11/25 05:30:25;;;;;;;1.80;0.70;;;6.50;99.90;;;;;;5052450;28;20421;-70
2022/11/25 05:32:50;;;;;;;2.53;1.00;;;6.50;99.90;;;;;;5063857;28;21192;-70
2022/11/25 05:35:16;;;;;;;1.77;0.70;;;6.60;99.90;;;;;;5066455;28;20396;-70
2022/11/25 05:37:42;;;;;;;1.05;0.80;;;6.60;99.90;;;;;;5059344;28;20465;-70
2022/11/25 05:40:08;;;;;;;2.72;0.80;;;6.70;99.90;;;;;;5063908;28;20399;-70
2022/11/25 05:42:34;;;;;;;2.60;1.00;;;6.60;99.90;;;;;;5057779;28;20512;-70
2022/11/25 05:45:00;;;;;;;1.10;0.80;;;6.70;99.90;;;;;;5058325;28;20385;-69
2022/11/25 05:47:26;;;;;;;1.40;0.90;;;6.50;99.90;;;;;;5050928;28;20401;-70
2022/11/25 05:49:52;;;;;;;2.05;0.90;;;6.50;99.90;;;;;;5059982;28;20408;-70
2022/11/25 05:52:17;;;;;;;2.00;1.10;;;6.50;99.90;;;;;;5053063;28;20464;-71
2022/11/25 05:54:43;;;;;;;1.40;0.90;;;6.50;99.90;;;;;;5059553;28;20409;-71
2022/11/25 05:57:08;;;;;;;2.55;1.50;;;6.50;99.90;;;;;;5065861;28;20434;-70
2022/11/25 05:59:34;;;;;;;2.60;1.00;;;6.50;99.90;;;;;;5046340;28;20373;-71
2022/11/25 06:02:00;;;;;;;2.73;1.60;;;6.60;99.90;;;;;;5038936;28;20451;-72
2022/11/25 06:04:25;;;;;;;2.40;1.10;;;6.60;99.90;;;;;;5062979;28;20475;-71
2022/11/25 06:06:51;;;;;;;2.20;1.10;;;6.60;99.90;;;;;;5049663;28;20387;-70
2022/11/25 06:09:17;;;;;;;2.40;0.93;;;6.60;99.90;;;;;;5044427;28;20440;-71
2022/11/25 06:11:42;;;;;;;1.58;1.10;;;6.60;99.90;;;;;;5051526;28;20402;-71
2022/11/25 06:14:08;;;;;;;2.17;1.10;;;6.60;99.90;;;;;;5055128;28;20405;-70
2022/11/25 06:16:34;;;;;;;1.60;1.05;;;6.60;99.90;;;;;;5042445;28;20575;-70
2022/11/25 06:19:04;;;;;;;1.60;1.25;;;6.70;99.90;;;;;;5061629;28;20431;-72
2022/11/25 06:21:30;;;;;;;1.80;1.00;;;6.70;99.90;;;;;;5052780;28;20389;-71
2022/11/25 06:23:55;;;;;;;2.50;1.15;;;6.70;99.90;;;;;;5059403;28;20393;-71
2022/11/25 06:26:21;;;;;;;2.50;1.30;;;6.70;99.90;;;;;;5052616;28;20377;-71
2022/11/25 06:28:49;;;;;;;1.70;1.30;;;6.70;99.90;;;;;;5062355;28;20411;-71
2022/11/25 06:31:19;;;;;;;2.45;1.27;;;6.70;99.90;;;;;;5063168;28;20425;-71
2022/11/25 06:33:47;;;;;;;2.17;1.60;;;6.70;99.90;;;;;;5058398;28;20907;-71
2022/11/25 06:36:16;;;;;;;2.53;1.95;;;6.70;99.90;;;;;;5060483;28;20393;-70
2022/11/25 06:38:53;;;;;;;2.67;1.90;;;6.70;99.90;;;;;;5050174;28;20399;-69
2022/11/25 06:41:20;;;;;;;4.00;2.20;;;6.70;99.90;;;;;;5050832;28;20393;-71
2022/11/25 06:43:45;;;;;;;4.45;2.25;;;6.70;99.90;;;;;;5055448;28;20798;-70
2022/11/25 06:46:14;;;;;;;5.45;2.20;;;6.70;99.90;;;;;;5063606;28;20407;-71
2022/11/25 06:48:39;;;;;;;5.93;2.40;;;6.80;99.90;;;;;;5052936;28;20889;-70
2022/11/25 06:51:09;;;;;;;1.80;1.50;;;6.80;99.90;;;;;;5061422;28;20434;-70
2022/11/25 06:53:35;;;;;;;3.88;1.80;;;6.90;99.90;;;;;;5047481;28;20938;-70
2022/11/25 06:56:25;;;;;;;4.30;1.70;;;6.90;99.90;;;;;;5047730;28;20454;-71
2022/11/25 06:58:51;;;;;;;2.85;1.50;;;6.90;99.90;;;;;;5052024;28;20410;-70
2022/11/25 07:01:20;;;;;;;4.60;1.67;;;7.00;99.90;;;;;;5063002;28;20471;-71
2022/11/25 07:03:47;;;;;;;2.28;1.60;;;7.10;99.90;;;;;;5061303;28;20926;-70
2022/11/25 07:06:14;;;;;;;4.20;1.80;;;7.10;99.90;;;;;;5068099;28;20383;-70
2022/11/25 07:08:41;;;;;;;4.10;1.70;;;7.00;99.90;;;;;;5056540;28;20523;-72
2022/11/25 07:11:16;;;;;;;2.45;1.90;;;7.20;99.90;;;;;;5061988;28;20457;-71
2022/11/25 07:13:42;;;;;;;3.42;1.63;;;7.30;99.90;;;;;;5059591;28;20408;-72
2022/11/25 07:16:09;;;;;;;1.42;1.30;;;7.40;99.90;;;;;;5063728;28;20408;-71
2022/11/25 07:18:37;;;;;;;2.70;1.75;;;7.50;99.90;;;;;;5054444;28;20400;-71
2022/11/25 07:21:08;;;;;;;4.00;1.60;;;7.40;99.90;;;;;;5055531;28;20384;-70
2022/11/25 07:23:34;;;;;;;9.80;6.43;;;7.60;99.90;;;;;;5066636;28;20397;-71
2022/11/25 07:26:05;;;;;;;4.13;2.50;;;7.80;99.90;;;;;;5065998;28;20403;-70
2022/11/25 07:28:31;;;;;;;3.60;1.92;;;8.10;99.90;;;;;;5051429;28;20773;-70
2022/11/25 07:31:21;;;;;;;3.30;1.50;;;8.10;99.90;;;;;;5063966;28;20384;-70
2022/11/25 07:33:50;;;;;;;4.47;1.67;;;8.30;99.90;;;;;;5052475;28;20408;-71
2022/11/25 07:36:15;;;;;;;5.45;1.70;;;8.40;99.90;;;;;;5053162;28;20802;-70
2022/11/25 07:38:41;;;;;;;8.23;2.20;;;9.50;99.90;;;;;;5051713;28;20385;-69
2022/11/25 07:41:08;;;;;;;3.00;1.30;;;10.10;99.90;;;;;;5072668;28;20372;-70
2022/11/25 07:43:34;;;;;;;4.30;1.58;;;10.20;99.90;;;;;;5072866;28;20383;-70
2022/11/25 07:46:14;;;;;;;3.20;1.30;;;10.40;99.90;;;;;;5055296;28;20387;-70
2022/11/25 07:48:40;;;;;;;3.47;1.60;;;10.30;99.90;;;;;;5055155;28;20415;-71
2022/11/25 07:51:13;;;;;;;2.80;1.23;;;10.30;99.90;;;;;;5072980;28;20395;-70
2022/11/25 07:53:39;;;;;;;2.90;1.50;;;10.40;99.90;;;;;;5072275;28;20399;-70
2022/11/25 07:56:04;;;;;;;5.40;1.50;;;10.50;99.90;;;;;;5073091;28;20390;-70
2022/11/25 07:58:30;;;;;;;4.20;1.57;;;10.60;99.90;;;;;;5073099;28;20388;-70
2022/11/25 08:00:55;;;;;;;4.60;1.60;;;10.60;99.90;;;;;;5072918;28;20472;-70
2022/11/25 08:03:21;;;;;;;3.57;1.70;;;10.50;99.90;;;;;;5071951;28;20777;-71
2022/11/25 08:05:47;;;;;;;3.15;1.50;;;10.50;99.90;;;;;;5072764;28;20973;-71
2022/11/25 08:08:12;;;;;;;3.72;1.40;;;10.50;99.90;;;;;;5072992;28;20789;-71
2022/11/25 08:10:41;;;;;;;5.00;1.90;;;10.30;99.90;;;;;;5072130;28;20379;-71
2022/11/25 08:13:06;;;;;;;5.47;1.70;;;10.30;99.90;;;;;;5071305;28;20474;-71
2022/11/25 08:15:32;;;;;;;4.83;1.90;;;10.20;99.90;;;;;;5072598;28;20387;-72
2022/11/25 08:17:57;;;;;;;4.30;1.70;;;10.10;99.90;;;;;;5072607;28;20379;-70
2022/11/25 08:20:23;;;;;;;5.73;2.00;;;10.00;99.90;;;;;;5072623;28;20419;-72
2022/11/25 08:22:49;;;;;;;6.07;1.80;;;9.90;99.90;;;;;;5071801;28;20792;-71
2022/11/25 08:25:14;;;;;;;6.55;2.17;;;9.80;99.90;;;;;;5072693;28;20396;-71
2022/11/25 08:27:40;;;;;;;4.78;2.28;;;9.60;99.90;;;;;;5072483;28;20414;-71
2022/11/25 08:30:06;;;;;;;5.55;2.50;;;9.40;99.90;;;;;;5072574;28;20446;-71
2022/11/25 08:32:38;;;;;;;4.90;1.83;;;9.20;99.90;;;;;;5071792;28;20466;-72
2022/11/25 08:35:05;;;;;;;6.20;2.25;;;9.00;99.90;;;;;;5072349;28;20368;-72
2022/11/25 08:37:31;;;;;;;4.28;2.20;;;8.90;99.90;;;;;;5054256;28;20387;-72
2022/11/25 08:39:56;;;;;;;5.32;2.03;;;8.90;99.90;;;;;;5061394;28;20377;-71
2022/11/25 08:42:22;;;;;;;5.80;1.70;;;9.10;99.90;;;;;;5052116;28;20899;-71
2022/11/25 08:44:54;;;;;;;4.15;1.88;;;9.10;99.90;;;;;;5051620;28;20925;-72
2022/11/25 08:47:20;;;;;;;5.07;2.00;;;9.20;99.90;;;;;;5051768;28;20398;-72
2022/11/25 08:49:50;;;;;;;3.28;1.50;;;9.20;99.90;;;;;;5052051;28;20385;-72
2022/11/25 08:52:15;;;;;;;1.87;1.10;;;9.30;99.90;;;;;;5051955;28;20882;-72
2022/11/25 08:54:41;;;;;;;4.33;1.43;;;9.40;99.90;;;;;;5052070;28;20410;-70
2022/11/25 08:57:06;;;;;;;2.60;1.20;;;9.50;99.90;;;;;;5055132;28;20381;-72
2022/11/25 08:59:32;;;;;;;2.33;1.20;;;9.60;99.90;;;;;;5055205;28;20411;-72
2022/11/25 09:01:57;;;;;;;2.85;1.05;;;9.60;99.90;;;;;;5054012;28;20419;-72
2022/11/25 09:04:23;;;;;;;2.53;1.40;;;9.60;99.90;;;;;;5052291;28;20397;-71
2022/11/25 09:06:48;;;;;;;2.75;1.17;;;9.60;99.90;;;;;;5055999;28;20396;-72
2022/11/25 09:09:14;;;;;;;2.70;1.20;;;9.60;99.90;;;;;;5056511;28;20389;-72
2022/11/25 09:11:41;;;;;;;2.63;1.20;;;9.60;99.90;;;;;;5054271;28;20420;-70
2022/11/25 09:14:06;;;;;;;2.85;1.00;;;9.60;99.90;;;;;;5033343;28;20783;-71
2022/11/25 09:16:32;;;;;;;1.87;1.10;;;9.60;99.90;;;;;;5052628;28;20386;-71
2022/11/25 09:18:58;;;;;;;3.40;1.03;;;9.60;99.90;;;;;;5052752;28;20396;-71
2022/11/25 09:21:24;;;;;;;2.78;1.00;;;9.60;99.90;;;;;;5052274;28;20385;-72
2022/11/25 09:23:51;;;;;;;1.67;0.90;;;9.70;99.90;;;;;;5050822;28;20381;-71
2022/11/25 09:26:34;;;;;;;2.78;1.00;;;9.70;99.90;;;;;;5049105;28;20397;-70
2022/11/25 09:29:00;;;;;;;3.92;1.08;;;9.70;99.90;;;;;;5050594;28;20748;-73
2022/11/25 09:31:25;;;;;;;1.93;0.77;;;9.90;99.90;;;;;;5032517;28;20388;-73
2022/11/25 09:33:51;;;;;;;2.60;1.20;;;10.00;99.90;;;;;;5049532;28;20783;-74
2022/11/25 09:36:18;;;;;;;3.40;1.10;;;10.00;99.90;;;;;;5050207;28;20946;-73
2022/11/25 09:38:44;;;;;;;1.50;1.10;;;10.00;99.90;;;;;;5050979;28;20389;-73
2022/11/25 09:47:14;;;;;;;4.50;1.60;;;10.30;99.90;;;;;;5070112;28;20458;-74
2022/11/25 09:50:06;;;;;;;3.00;1.30;;;10.60;99.90;;;;;;5052188;28;20829;-74
2022/11/25 09:53:01;;;;;;;2.65;1.35;;;10.70;99.90;;;;;;5069579;28;20391;-73
2022/11/25 09:55:32;;;;;;;2.90;1.20;;;10.90;99.90;;;;;;5008634;28;1757048;-73
2022/11/25 09:58:23;;;;;;;3.20;1.20;;;10.60;99.90;;;;;;5070665;28;20388;-74
2022/11/25 10:00:51;;;;;;;1.30;0.80;;;10.60;99.90;;;;;;5070751;28;20387;-74
2022/11/25 10:03:29;;;;;;;3.17;1.20;;;10.80;99.90;;;;;;5069768;28;20383;-71
2022/11/25 10:06:06;;;;;;;2.15;1.27;;;11.00;99.90;;;;;;5070616;28;20901;-72
2022/11/25 10:08:37;;;;;;;1.83;1.20;;;11.00;99.90;;;;;;5052697;28;20439;-73
2022/11/25 10:11:29;;;;;;;2.63;1.30;;;11.00;99.90;;;;;;5070593;28;20494;-72
2022/11/25 10:14:09;;;;;;;1.77;1.10;;;11.20;99.90;;;;;;5058504;28;20469;-73
2022/11/25 10:16:40;;;;;;;2.05;1.10;;;11.30;99.90;;;;;;5052372;28;20404;-74
2022/11/25 10:19:12;;;;;;;2.92;1.40;;;11.20;99.90;;;;;;5070501;28;20380;-74
2022/11/25 10:21:38;;;;;;;2.30;1.20;;;11.20;99.90;;;;;;5070586;28;20387;-73
2022/11/25 10:24:11;;;;;;;1.20;0.80;;;11.30;99.90;;;;;;5069609;28;20739;-74
2022/11/25 10:26:52;;;;;;;3.22;0.90;;;11.20;99.90;;;;;;5052546;28;20392;-74
2022/11/25 10:29:29;;;;;;;1.40;0.80;;;11.20;99.90;;;;;;5070279;28;20862;-73
2022/11/25 10:32:03;;;;;;;2.45;1.05;;;11.20;99.90;;;;;;5070521;28;20384;-74
2022/11/25 10:34:43;;;;;;;2.50;1.27;;;11.20;99.90;;;;;;5070090;28;20426;-74
2022/11/25 10:37:15;;;;;;;0.88;0.50;;;11.10;99.90;;;;;;5074528;28;20429;-74
2022/11/25 10:39:40;;;;;;;0.82;0.70;;;10.90;99.90;;;;;;5047782;28;20847;-73
2022/11/25 10:42:24;;;;;;;1.50;0.50;;;10.80;99.90;;;;;;5054504;28;20385;-74
2022/11/25 10:44:50;;;;;;;0.90;0.70;;;10.80;99.90;;;;;;5036024;28;20396;-73
2022/11/25 10:47:30;;;;;;;0.80;0.60;;;10.80;99.90;;;;;;5054240;28;20385;-74
2022/11/25 10:50:05;;;;;;;1.30;0.70;;;10.70;99.90;;;;;;5054220;28;20480;-74
2022/11/25 10:52:36;;;;;;;1.60;0.70;;;10.70;99.90;;;;;;5053587;28;20388;-73
2022/11/25 10:55:22;;;;;;;1.58;0.65;;;10.70;99.90;;;;;;5054078;28;20474;-74
2022/11/25 10:57:48;;;;;;;1.10;0.73;;;10.60;99.90;;;;;;5036239;28;20762;-74
2022/11/25 11:00:35;;;;;;;1.70;0.80;;;10.50;99.90;;;;;;5054073;28;20385;-75
2022/11/25 11:03:24;;;;;;;1.30;0.93;;;10.40;99.90;;;;;;5053160;28;20385;-74
2022/11/25 11:05:52;;;;;;;1.50;0.90;;;10.10;99.90;;;;;;5054024;28;20395;-75
2022/11/25 11:08:24;;;;;;;2.15;0.90;;;9.90;99.90;;;;;;5053912;28;20421;-76
2022/11/25 11:11:18;;;;;;;1.70;1.02;;;9.70;99.90;;;;;;5053845;28;20385;-75
2022/11/25 11:13:44;;;;;;;0.80;0.70;;;9.60;99.90;;;;;;5052932;28;20542;-76
2022/11/25 11:16:27;;;;;;;1.30;1.05;;;9.50;99.90;;;;;;5053876;28;20378;-76
2022/11/25 11:18:55;;;;;;;1.58;1.08;;;9.40;99.90;;;;;;5054471;28;20377;-76
2022/11/25 11:21:21;;;;;;;2.60;1.40;;;9.30;99.90;;;;;;5053634;28;20389;-76
2022/11/25 11:23:50;;;;;;;2.50;1.10;;;9.40;99.90;;;;;;5053373;28;20389;-76
2022/11/25 11:26:26;;;;;;;2.60;1.30;;;9.40;99.90;;;;;;5053381;28;20381;-75
2022/11/25 11:29:11;;;;;;;2.00;1.00;;;9.40;99.90;;;;;;5036104;28;20416;-75
2022/11/25 11:31:42;;;;;;;1.30;1.20;;;9.40;99.90;;;;;;5035750;28;20900;-75
2022/11/25 11:34:26;;;;;;;1.52;0.80;;;9.50;99.90;;;;;;5052650;28;20413;-75
2022/11/25 11:37:20;;;;;;;3.30;1.58;;;9.50;99.90;;;;;;5053352;28;20382;-75
2022/11/25 11:40:10;;;;;;;2.58;1.40;;;9.50;99.90;;;;;;5044815;28;20388;-75
2022/11/25 11:42:57;;;;;;;1.80;1.00;;;9.60;99.90;;;;;;5072642;28;20379;-75
2022/11/25 11:45:22;;;;;;;0.90;0.90;;;9.60;99.90;;;;;;5055029;28;20453;-76
2022/11/25 11:48:11;;;;;;;3.10;0.90;;;9.60;99.90;;;;;;5073350;28;20466;-75
2022/11/25 11:50:46;;;;;;;1.13;1.02;;;9.70;99.90;;;;;;5073207;28;20805;-76
2022/11/25 11:53:39;;;;;;;2.63;1.20;;;9.80;99.90;;;;;;5072285;28;20437;-76
2022/11/25 11:56:08;;;;;;;1.10;0.98;;;9.80;99.90;;;;;;5073740;28;20480;-76
2022/11/25 11:58:58;;;;;;;2.70;1.40;;;9.80;99.90;;;;;;5055085;28;21157;-76
2022/11/25 12:02:01;;;;;;;2.42;1.02;;;9.80;99.90;;;;;;5073120;28;20411;-75
2022/11/25 12:04:46;;;;;;;2.10;0.97;;;9.90;99.90;;;;;;5071979;28;20850;-75
2022/11/25 12:07:40;;;;;;;2.00;1.30;;;9.90;99.90;;;;;;5073145;28;20388;-75
2022/11/25 12:10:33;;;;;;;1.13;0.77;;;10.00;99.90;;;;;;5073308;28;20417;-75
2022/11/25 12:13:14;;;;;;;1.40;0.90;;;10.10;99.90;;;;;;5072162;28;20403;-74
2022/11/25 12:15:50;;;;;;;1.55;1.00;;;10.20;99.90;;;;;;5072553;28;20383;-74
2022/11/25 12:18:19;;;;;;;2.13;1.20;;;10.20;99.90;;;;;;5072478;28;20386;-73
2022/11/25 12:21:13;;;;;;;1.30;1.00;;;10.30;99.90;;;;;;5072605;28;20383;-74
2022/11/25 12:23:41;;;;;;;4.88;1.30;;;10.50;99.90;;;;;;5071700;28;20399;-74
2022/11/25 12:26:14;;;;;;;1.33;1.20;;;10.50;99.90;;;;;;5072475;28;20511;-73
2022/11/25 12:28:50;;;;;;;2.58;1.40;;;10.50;99.90;;;;;;5072707;28;20435;-74
2022/11/25 12:31:22;;;;;;;1.95;1.20;;;10.50;99.90;;;;;;5054811;28;20384;-74
2022/11/25 12:34:11;;;;;;;2.10;1.10;;;10.50;99.90;;;;;;5071334;28;20537;-74
2022/11/25 12:36:39;;;;;;;1.50;1.30;;;10.40;99.90;;;;;;5072304;28;20380;-73
2022/11/25 12:39:19;;;;;;;2.90;1.70;;;10.40;99.90;;;;;;5050775;28;20926;-74
2022/11/25 12:42:05;;;;;;;3.03;1.40;;;10.40;99.90;;;;;;5050677;28;20477;-74
2022/11/25 12:44:59;;;;;;;2.55;1.80;;;10.20;99.90;;;;;;5050338;28;20393;-75
2022/11/25 12:47:25;;;;;;;2.83;1.40;;;10.20;99.90;;;;;;5033358;28;20389;-74
2022/11/25 12:49:52;;;;;;;2.47;1.40;;;10.40;99.90;;;;;;5051440;28;20392;-75
2022/11/25 12:52:45;;;;;;;1.70;1.20;;;10.50;99.90;;;;;;5052151;28;20388;-75
2022/11/25 12:55:19;;;;;;;2.30;1.20;;;10.50;99.90;;;;;;5051676;28;20393;-75
2022/11/25 12:58:06;;;;;;;1.30;1.20;;;10.50;99.90;;;;;;5033323;28;20772;-75
2022/11/25 13:01:13;;;;;;;3.63;1.52;;;10.50;99.90;;;;;;5054260;28;20389;-75
2022/11/25 13:03:48;;;;;;;2.10;1.15;;;10.60;99.90;;;;;;5020916;28;20396;-74
2022/11/25 13:06:33;;;;;;;2.45;1.60;;;10.60;99.90;;;;;;5050292;28;20385;-75
2022/11/25 13:09:27;;;;;;;4.13;1.40;;;10.70;99.90;;;;;;5032103;28;20737;-76
2022/11/25 13:12:11;;;;;;;4.45;1.67;;;10.60;99.90;;;;;;5049389;28;20424;-75
2022/11/25 13:15:14;;;;;;;1.90;1.30;;;10.60;99.90;;;;;;5048140;28;20463;-75
2022/11/25 13:17:43;;;;;;;3.25;1.60;;;10.60;99.90;;;;;;5050475;28;20438;-75
2022/11/25 13:20:50;;;;;;;2.80;1.80;;;10.60;99.90;;;;;;5033552;28;20392;-75
2022/11/25 13:23:16;;;;;;;2.22;1.70;;;10.70;99.90;;;;;;5005890;28;20396;-75
2022/11/25 13:25:47;;;;;;;2.47;1.40;;;10.70;99.90;;;;;;5053297;28;20432;-75